sensor_id;sensor_type;location;lat;lon;timestamp;P1;durP1;ratioP1;P2;durP2;ratioP2
41883;SDS011;27566;50.930;5.328;2023-09-12T00:02:07;17.48;;;11.25;;
41883;SDS011;27566;50.930;5.328;2023-09-12T00:04:34;16.52;;;12.07;;
41883;SDS011;27566;50.930;5.328;2023-09-12T00:07:00;18.65;;;13.10;;
41883;SDS011;27566;50.930;5.328;2023-09-12T00:09:26;17.13;;;12.20;;
41883;SDS011;27566;50.930;5.328;2023-09-12T00:11:53;17.95;;;12.43;;
41883;SDS011;27566;50.930;5.328;2023-09-12T00:14:19;18.65;;;12.10;;
41883;SDS011;27566;50.930;5.328;2023-09-12T00:16:46;15.50;;;10.48;;
41883;SDS011;27566;50.930;5.328;2023-09-12T00:19:12;17.33;;;11.30;;
41883;SDS011;27566;50.930;5.328;2023-09-12T00:21:38;13.48;;;9.82;;
41883;SDS011;27566;50.930;5.328;2023-09-12T00:24:04;12.98;;;9.88;;
41883;SDS011;27566;50.930;5.328;2023-09-12T00:26:30;14.38;;;10.55;;
41883;SDS011;27566;50.930;5.328;2023-09-12T00:28:56;15.45;;;10.68;;
41883;SDS011;27566;50.930;5.328;2023-09-12T00:31:22;13.88;;;10.23;;
41883;SDS011;27566;50.930;5.328;2023-09-12T00:33:48;14.48;;;10.48;;
41883;SDS011;27566;50.930;5.328;2023-09-12T00:36:14;16.73;;;9.40;;
41883;SDS011;27566;50.930;5.328;2023-09-12T00:38:40;14.98;;;10.32;;
41883;SDS011;27566;50.930;5.328;2023-09-12T00:41:06;14.18;;;10.65;;
41883;SDS011;27566;50.930;5.328;2023-09-12T00:43:32;14.88;;;10.77;;
41883;SDS011;27566;50.930;5.328;2023-09-12T00:45:57;18.58;;;11.63;;
41883;SDS011;27566;50.930;5.328;2023-09-12T00:48:23;17.08;;;11.32;;
41883;SDS011;27566;50.930;5.328;2023-09-12T00:50:49;17.98;;;10.82;;
41883;SDS011;27566;50.930;5.328;2023-09-12T00:53:18;19.75;;;11.77;;
41883;SDS011;27566;50.930;5.328;2023-09-12T00:55:46;18.77;;;11.68;;
41883;SDS011;27566;50.930;5.328;2023-09-12T00:58:16;14.75;;;10.50;;
41883;SDS011;27566;50.930;5.328;2023-09-12T01:00:43;14.88;;;10.38;;
41883;SDS011;27566;50.930;5.328;2023-09-12T01:03:09;16.63;;;10.45;;
41883;SDS011;27566;50.930;5.328;2023-09-12T01:05:35;16.90;;;10.50;;
41883;SDS011;27566;50.930;5.328;2023-09-12T01:08:01;17.50;;;10.60;;
41883;SDS011;27566;50.930;5.328;2023-09-12T01:10:27;14.25;;;9.48;;
41883;SDS011;27566;50.930;5.328;2023-09-12T01:12:53;16.65;;;9.75;;
41883;SDS011;27566;50.930;5.328;2023-09-12T01:15:19;19.35;;;11.75;;
41883;SDS011;27566;50.930;5.328;2023-09-12T01:17:45;13.60;;;10.20;;
41883;SDS011;27566;50.930;5.328;2023-09-12T01:20:14;17.20;;;10.13;;
41883;SDS011;27566;50.930;5.328;2023-09-12T01:28:29;19.98;;;11.85;;
41883;SDS011;27566;50.930;5.328;2023-09-12T01:31:00;17.10;;;11.88;;
41883;SDS011;27566;50.930;5.328;2023-09-12T01:33:28;17.95;;;11.77;;
41883;SDS011;27566;50.930;5.328;2023-09-12T01:35:54;19.08;;;12.63;;
41883;SDS011;27566;50.930;5.328;2023-09-12T01:38:20;17.05;;;11.15;;
41883;SDS011;27566;50.930;5.328;2023-09-12T01:40:50;18.30;;;12.52;;
41883;SDS011;27566;50.930;5.328;2023-09-12T01:43:18;15.90;;;11.90;;
41883;SDS011;27566;50.930;5.328;2023-09-12T01:45:50;19.13;;;11.55;;
41883;SDS011;27566;50.930;5.328;2023-09-12T01:48:20;14.45;;;11.30;;
41883;SDS011;27566;50.930;5.328;2023-09-12T01:50:49;15.77;;;11.13;;
41883;SDS011;27566;50.930;5.328;2023-09-12T01:53:19;14.88;;;9.93;;
41883;SDS011;27566;50.930;5.328;2023-09-12T01:55:45;15.80;;;11.43;;
41883;SDS011;27566;50.930;5.328;2023-09-12T01:58:12;14.48;;;11.50;;
41883;SDS011;27566;50.930;5.328;2023-09-12T02:00:39;17.38;;;10.77;;
41883;SDS011;27566;50.930;5.328;2023-09-12T02:03:05;15.27;;;12.77;;
41883;SDS011;27566;50.930;5.328;2023-09-12T02:05:31;14.70;;;11.43;;
41883;SDS011;27566;50.930;5.328;2023-09-12T02:07:58;18.63;;;12.93;;
41883;SDS011;27566;50.930;5.328;2023-09-12T02:10:27;20.98;;;12.85;;
41883;SDS011;27566;50.930;5.328;2023-09-12T02:12:53;18.60;;;12.43;;
41883;SDS011;27566;50.930;5.328;2023-09-12T02:15:19;16.83;;;12.63;;
41883;SDS011;27566;50.930;5.328;2023-09-12T02:17:45;17.95;;;11.80;;
41883;SDS011;27566;50.930;5.328;2023-09-12T02:20:11;16.60;;;12.20;;
41883;SDS011;27566;50.930;5.328;2023-09-12T02:22:37;21.20;;;14.13;;
41883;SDS011;27566;50.930;5.328;2023-09-12T02:25:03;16.83;;;12.20;;
41883;SDS011;27566;50.930;5.328;2023-09-12T02:27:31;18.95;;;11.73;;
41883;SDS011;27566;50.930;5.328;2023-09-12T02:29:57;15.60;;;10.73;;
41883;SDS011;27566;50.930;5.328;2023-09-12T02:32:23;16.50;;;12.88;;
41883;SDS011;27566;50.930;5.328;2023-09-12T02:34:49;16.38;;;12.45;;
41883;SDS011;27566;50.930;5.328;2023-09-12T02:37:15;17.20;;;13.25;;
41883;SDS011;27566;50.930;5.328;2023-09-12T02:39:41;18.63;;;14.00;;
41883;SDS011;27566;50.930;5.328;2023-09-12T02:42:07;17.88;;;13.90;;
41883;SDS011;27566;50.930;5.328;2023-09-12T02:44:33;19.98;;;13.82;;
41883;SDS011;27566;50.930;5.328;2023-09-12T02:46:59;18.10;;;13.35;;
41883;SDS011;27566;50.930;5.328;2023-09-12T02:49:25;20.38;;;13.32;;
41883;SDS011;27566;50.930;5.328;2023-09-12T02:51:51;19.30;;;14.98;;
41883;SDS011;27566;50.930;5.328;2023-09-12T02:54:17;18.63;;;14.52;;
41883;SDS011;27566;50.930;5.328;2023-09-12T02:56:43;21.60;;;14.93;;
41883;SDS011;27566;50.930;5.328;2023-09-12T02:59:09;17.77;;;13.93;;
41883;SDS011;27566;50.930;5.328;2023-09-12T03:01:35;21.83;;;13.98;;
41883;SDS011;27566;50.930;5.328;2023-09-12T03:04:01;24.25;;;16.33;;
41883;SDS011;27566;50.930;5.328;2023-09-12T03:06:27;23.33;;;14.85;;
41883;SDS011;27566;50.930;5.328;2023-09-12T03:08:54;20.02;;;13.95;;
41883;SDS011;27566;50.930;5.328;2023-09-12T03:11:20;17.83;;;14.07;;
41883;SDS011;27566;50.930;5.328;2023-09-12T03:13:46;20.58;;;14.98;;
41883;SDS011;27566;50.930;5.328;2023-09-12T03:16:12;19.45;;;13.85;;
41883;SDS011;27566;50.930;5.328;2023-09-12T03:18:39;19.70;;;14.82;;
41883;SDS011;27566;50.930;5.328;2023-09-12T03:21:05;24.40;;;15.18;;
41883;SDS011;27566;50.930;5.328;2023-09-12T03:23:31;19.02;;;13.80;;
41883;SDS011;27566;50.930;5.328;2023-09-12T03:26:01;20.40;;;14.95;;
41883;SDS011;27566;50.930;5.328;2023-09-12T03:28:29;19.67;;;13.10;;
41883;SDS011;27566;50.930;5.328;2023-09-12T03:31:03;20.65;;;17.25;;
41883;SDS011;27566;50.930;5.328;2023-09-12T03:33:33;26.20;;;16.17;;
41883;SDS011;27566;50.930;5.328;2023-09-12T03:35:59;21.25;;;15.88;;
41883;SDS011;27566;50.930;5.328;2023-09-12T03:38:25;21.02;;;16.00;;
41883;SDS011;27566;50.930;5.328;2023-09-12T03:40:50;25.83;;;17.05;;
41883;SDS011;27566;50.930;5.328;2023-09-12T03:43:16;20.85;;;15.25;;
41883;SDS011;27566;50.930;5.328;2023-09-12T03:45:42;23.45;;;15.05;;
41883;SDS011;27566;50.930;5.328;2023-09-12T03:48:08;21.48;;;15.90;;
41883;SDS011;27566;50.930;5.328;2023-09-12T03:50:34;22.95;;;14.02;;
41883;SDS011;27566;50.930;5.328;2023-09-12T03:53:00;18.58;;;13.80;;
41883;SDS011;27566;50.930;5.328;2023-09-12T03:55:26;23.92;;;14.82;;
41883;SDS011;27566;50.930;5.328;2023-09-12T03:57:52;21.88;;;14.90;;
41883;SDS011;27566;50.930;5.328;2023-09-12T04:00:18;21.73;;;15.00;;
41883;SDS011;27566;50.930;5.328;2023-09-12T04:02:44;20.17;;;14.05;;
41883;SDS011;27566;50.930;5.328;2023-09-12T04:05:10;18.63;;;15.57;;
41883;SDS011;27566;50.930;5.328;2023-09-12T04:07:36;20.08;;;15.18;;
41883;SDS011;27566;50.930;5.328;2023-09-12T04:10:02;25.65;;;14.60;;
41883;SDS011;27566;50.930;5.328;2023-09-12T04:12:28;18.65;;;13.93;;
41883;SDS011;27566;50.930;5.328;2023-09-12T04:14:54;23.08;;;14.80;;
41883;SDS011;27566;50.930;5.328;2023-09-12T04:17:20;20.42;;;13.73;;
41883;SDS011;27566;50.930;5.328;2023-09-12T04:19:46;20.52;;;15.25;;
41883;SDS011;27566;50.930;5.328;2023-09-12T04:22:13;19.42;;;14.77;;
41883;SDS011;27566;50.930;5.328;2023-09-12T04:24:39;16.58;;;12.75;;
41883;SDS011;27566;50.930;5.328;2023-09-12T04:27:05;18.33;;;14.10;;
41883;SDS011;27566;50.930;5.328;2023-09-12T04:29:34;21.55;;;15.88;;
41883;SDS011;27566;50.930;5.328;2023-09-12T04:32:03;18.42;;;14.35;;
41883;SDS011;27566;50.930;5.328;2023-09-12T04:34:29;23.73;;;16.50;;
41883;SDS011;27566;50.930;5.328;2023-09-12T04:36:56;26.63;;;18.35;;
41883;SDS011;27566;50.930;5.328;2023-09-12T04:39:22;24.33;;;17.15;;
41883;SDS011;27566;50.930;5.328;2023-09-12T04:41:48;21.00;;;16.17;;
41883;SDS011;27566;50.930;5.328;2023-09-12T04:44:14;26.20;;;17.30;;
41883;SDS011;27566;50.930;5.328;2023-09-12T04:46:40;25.00;;;17.55;;
41883;SDS011;27566;50.930;5.328;2023-09-12T04:49:06;23.88;;;16.48;;
41883;SDS011;27566;50.930;5.328;2023-09-12T04:51:31;29.40;;;18.92;;
41883;SDS011;27566;50.930;5.328;2023-09-12T04:53:57;28.00;;;16.85;;
41883;SDS011;27566;50.930;5.328;2023-09-12T04:56:23;27.67;;;18.95;;
41883;SDS011;27566;50.930;5.328;2023-09-12T04:58:51;29.30;;;19.15;;
41883;SDS011;27566;50.930;5.328;2023-09-12T05:01:17;26.50;;;19.65;;
41883;SDS011;27566;50.930;5.328;2023-09-12T05:03:43;28.98;;;19.85;;
41883;SDS011;27566;50.930;5.328;2023-09-12T05:06:09;24.98;;;18.90;;
41883;SDS011;27566;50.930;5.328;2023-09-12T05:08:36;34.85;;;17.52;;
41883;SDS011;27566;50.930;5.328;2023-09-12T05:11:02;25.77;;;19.83;;
41883;SDS011;27566;50.930;5.328;2023-09-12T05:13:28;22.55;;;16.92;;
41883;SDS011;27566;50.930;5.328;2023-09-12T05:15:55;25.50;;;16.30;;
41883;SDS011;27566;50.930;5.328;2023-09-12T05:18:21;28.58;;;17.20;;
41883;SDS011;27566;50.930;5.328;2023-09-12T05:20:47;23.35;;;17.77;;
41883;SDS011;27566;50.930;5.328;2023-09-12T05:23:14;33.47;;;17.10;;
41883;SDS011;27566;50.930;5.328;2023-09-12T05:25:39;26.85;;;16.65;;
41883;SDS011;27566;50.930;5.328;2023-09-12T05:28:05;31.48;;;18.08;;
41883;SDS011;27566;50.930;5.328;2023-09-12T05:30:31;26.08;;;16.65;;
41883;SDS011;27566;50.930;5.328;2023-09-12T05:32:57;26.90;;;17.00;;
41883;SDS011;27566;50.930;5.328;2023-09-12T05:35:22;23.60;;;16.98;;
41883;SDS011;27566;50.930;5.328;2023-09-12T05:37:48;24.55;;;18.20;;
41883;SDS011;27566;50.930;5.328;2023-09-12T05:40:15;23.15;;;15.02;;
41883;SDS011;27566;50.930;5.328;2023-09-12T05:42:40;23.92;;;16.45;;
41883;SDS011;27566;50.930;5.328;2023-09-12T05:45:06;24.38;;;15.73;;
41883;SDS011;27566;50.930;5.328;2023-09-12T05:47:32;24.05;;;16.38;;
41883;SDS011;27566;50.930;5.328;2023-09-12T05:49:58;22.35;;;13.25;;
41883;SDS011;27566;50.930;5.328;2023-09-12T05:54:56;35.03;;;15.40;;
41883;SDS011;27566;50.930;5.328;2023-09-12T05:57:27;23.63;;;13.98;;
41883;SDS011;27566;50.930;5.328;2023-09-12T05:59:53;21.33;;;15.73;;
41883;SDS011;27566;50.930;5.328;2023-09-12T06:02:19;25.38;;;14.65;;
41883;SDS011;27566;50.930;5.328;2023-09-12T06:04:45;19.35;;;14.10;;
41883;SDS011;27566;50.930;5.328;2023-09-12T06:07:10;28.38;;;14.65;;
41883;SDS011;27566;50.930;5.328;2023-09-12T06:09:37;25.35;;;14.27;;
41883;SDS011;27566;50.930;5.328;2023-09-12T06:12:03;20.77;;;14.98;;
41883;SDS011;27566;50.930;5.328;2023-09-12T06:14:29;22.13;;;15.00;;
41883;SDS011;27566;50.930;5.328;2023-09-12T06:16:55;21.48;;;15.00;;
41883;SDS011;27566;50.930;5.328;2023-09-12T06:19:21;23.23;;;15.00;;
41883;SDS011;27566;50.930;5.328;2023-09-12T06:21:47;23.25;;;15.45;;
41883;SDS011;27566;50.930;5.328;2023-09-12T06:24:14;22.95;;;15.00;;
41883;SDS011;27566;50.930;5.328;2023-09-12T06:26:42;24.00;;;14.95;;
41883;SDS011;27566;50.930;5.328;2023-09-12T06:29:08;24.13;;;15.70;;
41883;SDS011;27566;50.930;5.328;2023-09-12T06:31:34;27.23;;;14.57;;
41883;SDS011;27566;50.930;5.328;2023-09-12T06:34:00;23.55;;;16.45;;
41883;SDS011;27566;50.930;5.328;2023-09-12T06:36:27;26.42;;;17.02;;
41883;SDS011;27566;50.930;5.328;2023-09-12T06:38:57;27.30;;;16.10;;
41883;SDS011;27566;50.930;5.328;2023-09-12T06:41:23;22.13;;;17.17;;
41883;SDS011;27566;50.930;5.328;2023-09-12T06:43:50;27.08;;;20.77;;
41883;SDS011;27566;50.930;5.328;2023-09-12T06:46:16;32.75;;;18.88;;
41883;SDS011;27566;50.930;5.328;2023-09-12T06:48:45;26.45;;;17.15;;
41883;SDS011;27566;50.930;5.328;2023-09-12T06:51:11;28.58;;;18.42;;
41883;SDS011;27566;50.930;5.328;2023-09-12T06:53:37;27.25;;;19.88;;
41883;SDS011;27566;50.930;5.328;2023-09-12T06:56:04;26.58;;;18.35;;
41883;SDS011;27566;50.930;5.328;2023-09-12T06:58:30;27.42;;;19.48;;
41883;SDS011;27566;50.930;5.328;2023-09-12T07:01:06;29.98;;;19.17;;
41883;SDS011;27566;50.930;5.328;2023-09-12T07:03:32;25.27;;;17.30;;
41883;SDS011;27566;50.930;5.328;2023-09-12T07:05:59;22.70;;;17.42;;
41883;SDS011;27566;50.930;5.328;2023-09-12T07:08:26;28.58;;;18.92;;
41883;SDS011;27566;50.930;5.328;2023-09-12T07:10:52;24.77;;;16.98;;
41883;SDS011;27566;50.930;5.328;2023-09-12T07:13:20;31.73;;;17.75;;
41883;SDS011;27566;50.930;5.328;2023-09-12T07:15:47;24.17;;;17.05;;
41883;SDS011;27566;50.930;5.328;2023-09-12T07:18:13;26.10;;;17.00;;
41883;SDS011;27566;50.930;5.328;2023-09-12T07:20:40;25.95;;;17.20;;
41883;SDS011;27566;50.930;5.328;2023-09-12T07:23:06;24.02;;;17.48;;
41883;SDS011;27566;50.930;5.328;2023-09-12T07:25:50;30.50;;;17.60;;
41883;SDS011;27566;50.930;5.328;2023-09-12T07:28:17;21.98;;;17.27;;
41883;SDS011;27566;50.930;5.328;2023-09-12T07:30:47;24.88;;;17.95;;
41883;SDS011;27566;50.930;5.328;2023-09-12T07:33:13;29.77;;;17.15;;
41883;SDS011;27566;50.930;5.328;2023-09-12T07:35:39;24.90;;;17.80;;
41883;SDS011;27566;50.930;5.328;2023-09-12T07:38:05;22.55;;;15.93;;
41883;SDS011;27566;50.930;5.328;2023-09-12T07:40:31;36.85;;;22.98;;
41883;SDS011;27566;50.930;5.328;2023-09-12T07:42:57;27.17;;;18.00;;
41883;SDS011;27566;50.930;5.328;2023-09-12T07:45:22;27.90;;;16.95;;
41883;SDS011;27566;50.930;5.328;2023-09-12T07:47:48;25.42;;;18.15;;
41883;SDS011;27566;50.930;5.328;2023-09-12T07:50:15;29.92;;;18.75;;
41883;SDS011;27566;50.930;5.328;2023-09-12T07:52:41;34.20;;;19.65;;
41883;SDS011;27566;50.930;5.328;2023-09-12T07:55:07;27.23;;;16.63;;
41883;SDS011;27566;50.930;5.328;2023-09-12T07:57:33;25.73;;;17.83;;
41883;SDS011;27566;50.930;5.328;2023-09-12T08:00:00;24.30;;;16.95;;
41883;SDS011;27566;50.930;5.328;2023-09-12T08:02:29;26.20;;;17.55;;
41883;SDS011;27566;50.930;5.328;2023-09-12T08:04:55;26.17;;;17.15;;
41883;SDS011;27566;50.930;5.328;2023-09-12T08:07:21;28.48;;;17.67;;
41883;SDS011;27566;50.930;5.328;2023-09-12T08:09:47;26.95;;;19.70;;
41883;SDS011;27566;50.930;5.328;2023-09-12T08:12:15;26.50;;;18.98;;
41883;SDS011;27566;50.930;5.328;2023-09-12T08:14:42;33.03;;;17.83;;
41883;SDS011;27566;50.930;5.328;2023-09-12T08:17:08;26.33;;;17.70;;
41883;SDS011;27566;50.930;5.328;2023-09-12T08:19:34;23.88;;;16.83;;
41883;SDS011;27566;50.930;5.328;2023-09-12T08:22:00;23.90;;;16.00;;
41883;SDS011;27566;50.930;5.328;2023-09-12T08:24:26;22.30;;;17.02;;
41883;SDS011;27566;50.930;5.328;2023-09-12T08:26:52;24.10;;;17.25;;
41883;SDS011;27566;50.930;5.328;2023-09-12T08:29:18;26.08;;;18.77;;
41883;SDS011;27566;50.930;5.328;2023-09-12T08:31:44;25.48;;;18.35;;
41883;SDS011;27566;50.930;5.328;2023-09-12T08:34:12;30.75;;;16.65;;
41883;SDS011;27566;50.930;5.328;2023-09-12T08:36:38;106.78;;;29.35;;
41883;SDS011;27566;50.930;5.328;2023-09-12T08:39:04;26.00;;;17.40;;
41883;SDS011;27566;50.930;5.328;2023-09-12T08:41:33;26.42;;;16.63;;
41883;SDS011;27566;50.930;5.328;2023-09-12T08:43:59;20.58;;;15.68;;
41883;SDS011;27566;50.930;5.328;2023-09-12T08:46:26;202.90;;;53.75;;
41883;SDS011;27566;50.930;5.328;2023-09-12T08:48:55;140.38;;;34.58;;
41883;SDS011;27566;50.930;5.328;2023-09-12T08:51:22;94.18;;;24.65;;
41883;SDS011;27566;50.930;5.328;2023-09-12T08:53:51;205.95;;;36.55;;
41883;SDS011;27566;50.930;5.328;2023-09-12T08:56:18;48.03;;;14.63;;
41883;SDS011;27566;50.930;5.328;2023-09-12T08:58:45;16.10;;;11.02;;
41883;SDS011;27566;50.930;5.328;2023-09-12T09:01:13;13.50;;;9.88;;
41883;SDS011;27566;50.930;5.328;2023-09-12T09:03:41;14.85;;;10.95;;
41883;SDS011;27566;50.930;5.328;2023-09-12T09:06:09;19.05;;;11.55;;
41883;SDS011;27566;50.930;5.328;2023-09-12T09:08:37;14.82;;;10.77;;
41883;SDS011;27566;50.930;5.328;2023-09-12T09:11:04;18.10;;;12.32;;
41883;SDS011;27566;50.930;5.328;2023-09-12T09:13:34;18.58;;;10.93;;
41883;SDS011;27566;50.930;5.328;2023-09-12T09:16:10;18.83;;;11.27;;
41883;SDS011;27566;50.930;5.328;2023-09-12T09:21:18;19.77;;;11.77;;
41883;SDS011;27566;50.930;5.328;2023-09-12T09:23:46;17.10;;;11.32;;
41883;SDS011;27566;50.930;5.328;2023-09-12T09:26:12;14.48;;;10.27;;
41883;SDS011;27566;50.930;5.328;2023-09-12T09:28:38;17.65;;;11.10;;
41883;SDS011;27566;50.930;5.328;2023-09-12T09:31:04;19.48;;;11.80;;
41883;SDS011;27566;50.930;5.328;2023-09-12T09:33:35;18.10;;;13.45;;
41883;SDS011;27566;50.930;5.328;2023-09-12T09:36:02;14.20;;;11.07;;
41883;SDS011;27566;50.930;5.328;2023-09-12T09:38:34;16.77;;;11.93;;
41883;SDS011;27566;50.930;5.328;2023-09-12T09:41:03;21.08;;;14.75;;
41883;SDS011;27566;50.930;5.328;2023-09-12T09:43:30;24.77;;;12.40;;
41883;SDS011;27566;50.930;5.328;2023-09-12T09:45:59;15.95;;;10.63;;
41883;SDS011;27566;50.930;5.328;2023-09-12T09:48:26;14.35;;;11.27;;
41883;SDS011;27566;50.930;5.328;2023-09-12T09:50:52;18.35;;;10.77;;
41883;SDS011;27566;50.930;5.328;2023-09-12T09:53:36;16.00;;;11.07;;
41883;SDS011;27566;50.930;5.328;2023-09-12T09:58:53;15.07;;;11.07;;
41883;SDS011;27566;50.930;5.328;2023-09-12T10:01:21;16.10;;;12.68;;
41883;SDS011;27566;50.930;5.328;2023-09-12T10:03:58;15.80;;;12.13;;
41883;SDS011;27566;50.930;5.328;2023-09-12T10:06:26;15.63;;;10.65;;
41883;SDS011;27566;50.930;5.328;2023-09-12T10:08:53;14.02;;;9.60;;
41883;SDS011;27566;50.930;5.328;2023-09-12T10:11:24;16.80;;;9.68;;
41883;SDS011;27566;50.930;5.328;2023-09-12T10:13:54;15.57;;;10.65;;
41883;SDS011;27566;50.930;5.328;2023-09-12T10:16:26;13.10;;;9.90;;
41883;SDS011;27566;50.930;5.328;2023-09-12T10:24:20;15.15;;;11.65;;
41883;SDS011;27566;50.930;5.328;2023-09-12T10:26:49;17.27;;;10.90;;
41883;SDS011;27566;50.930;5.328;2023-09-12T10:29:16;20.48;;;9.65;;
41883;SDS011;27566;50.930;5.328;2023-09-12T10:31:42;13.75;;;9.38;;
41883;SDS011;27566;50.930;5.328;2023-09-12T10:34:08;10.85;;;7.97;;
41883;SDS011;27566;50.930;5.328;2023-09-12T10:36:38;25.40;;;9.50;;
41883;SDS011;27566;50.930;5.328;2023-09-12T10:39:07;14.15;;;7.30;;
41883;SDS011;27566;50.930;5.328;2023-09-12T10:41:38;11.63;;;7.18;;
41883;SDS011;27566;50.930;5.328;2023-09-12T10:44:11;14.63;;;7.10;;
41883;SDS011;27566;50.930;5.328;2023-09-12T10:46:43;13.50;;;7.75;;
41883;SDS011;27566;50.930;5.328;2023-09-12T10:49:12;12.27;;;7.90;;
41883;SDS011;27566;50.930;5.328;2023-09-12T10:51:43;13.45;;;7.32;;
41883;SDS011;27566;50.930;5.328;2023-09-12T10:54:13;11.23;;;6.97;;
41883;SDS011;27566;50.930;5.328;2023-09-12T10:57:03;15.43;;;7.07;;
41883;SDS011;27566;50.930;5.328;2023-09-12T11:00:08;11.27;;;6.30;;
41883;SDS011;27566;50.930;5.328;2023-09-12T11:02:31;12.73;;;7.20;;
41883;SDS011;27566;50.930;5.328;2023-09-12T11:05:00;10.32;;;6.90;;
41883;SDS011;27566;50.930;5.328;2023-09-12T11:07:30;16.23;;;7.47;;
41883;SDS011;27566;50.930;5.328;2023-09-12T11:12:41;11.32;;;6.22;;
41883;SDS011;27566;50.930;5.328;2023-09-12T11:15:08;10.15;;;6.03;;
41883;SDS011;27566;50.930;5.328;2023-09-12T11:17:42;11.30;;;6.15;;
41883;SDS011;27566;50.930;5.328;2023-09-12T11:20:12;11.48;;;6.47;;
41883;SDS011;27566;50.930;5.328;2023-09-12T11:25:23;15.77;;;7.25;;
41883;SDS011;27566;50.930;5.328;2023-09-12T11:30:19;10.80;;;5.53;;
41883;SDS011;27566;50.930;5.328;2023-09-12T11:32:45;36.15;;;8.82;;
41883;SDS011;27566;50.930;5.328;2023-09-12T11:35:13;34.85;;;7.75;;
41883;SDS011;27566;50.930;5.328;2023-09-12T11:37:48;8.25;;;6.05;;
41883;SDS011;27566;50.930;5.328;2023-09-12T11:42:41;11.00;;;6.35;;
41883;SDS011;27566;50.930;5.328;2023-09-12T11:45:11;7.65;;;4.18;;
41883;SDS011;27566;50.930;5.328;2023-09-12T11:47:40;41.92;;;11.07;;
41883;SDS011;27566;50.930;5.328;2023-09-12T11:50:07;13.25;;;6.80;;
41883;SDS011;27566;50.930;5.328;2023-09-12T11:52:36;8.68;;;5.07;;
41883;SDS011;27566;50.930;5.328;2023-09-12T11:55:03;51.08;;;11.30;;
41883;SDS011;27566;50.930;5.328;2023-09-12T11:57:29;16.50;;;8.25;;
41883;SDS011;27566;50.930;5.328;2023-09-12T11:59:57;9.68;;;5.78;;
41883;SDS011;27566;50.930;5.328;2023-09-12T12:02:23;10.50;;;5.38;;
41883;SDS011;27566;50.930;5.328;2023-09-12T12:04:49;12.75;;;5.35;;
41883;SDS011;27566;50.930;5.328;2023-09-12T12:07:15;9.52;;;5.75;;
41883;SDS011;27566;50.930;5.328;2023-09-12T12:09:41;9.57;;;5.47;;
41883;SDS011;27566;50.930;5.328;2023-09-12T12:12:11;9.57;;;5.70;;
41883;SDS011;27566;50.930;5.328;2023-09-12T12:14:38;8.15;;;5.43;;
41883;SDS011;27566;50.930;5.328;2023-09-12T12:17:09;10.55;;;5.68;;
41883;SDS011;27566;50.930;5.328;2023-09-12T12:19:36;10.27;;;5.03;;
41883;SDS011;27566;50.930;5.328;2023-09-12T12:22:03;8.73;;;5.40;;
41883;SDS011;27566;50.930;5.328;2023-09-12T12:24:39;10.43;;;4.88;;
41883;SDS011;27566;50.930;5.328;2023-09-12T12:27:16;7.68;;;4.85;;
41883;SDS011;27566;50.930;5.328;2023-09-12T12:29:42;6.80;;;4.70;;
41883;SDS011;27566;50.930;5.328;2023-09-12T12:32:09;8.70;;;4.88;;
41883;SDS011;27566;50.930;5.328;2023-09-12T12:34:36;6.35;;;4.30;;
41883;SDS011;27566;50.930;5.328;2023-09-12T12:37:02;7.70;;;4.50;;
41883;SDS011;27566;50.930;5.328;2023-09-12T12:39:28;9.32;;;4.85;;
41883;SDS011;27566;50.930;5.328;2023-09-12T12:41:54;13.85;;;6.72;;
41883;SDS011;27566;50.930;5.328;2023-09-12T12:44:21;22.42;;;13.73;;
41883;SDS011;27566;50.930;5.328;2023-09-12T12:46:47;8.98;;;5.32;;
41883;SDS011;27566;50.930;5.328;2023-09-12T12:49:17;11.20;;;5.70;;
41883;SDS011;27566;50.930;5.328;2023-09-12T12:51:45;8.05;;;5.00;;
41883;SDS011;27566;50.930;5.328;2023-09-12T12:54:12;5.97;;;3.50;;
41883;SDS011;27566;50.930;5.328;2023-09-12T12:56:38;6.47;;;3.88;;
41883;SDS011;27566;50.930;5.328;2023-09-12T12:59:05;7.38;;;4.60;;
41883;SDS011;27566;50.930;5.328;2023-09-12T13:01:37;6.35;;;4.07;;
41883;SDS011;27566;50.930;5.328;2023-09-12T13:04:04;6.82;;;3.83;;
41883;SDS011;27566;50.930;5.328;2023-09-12T13:06:32;6.15;;;3.72;;
41883;SDS011;27566;50.930;5.328;2023-09-12T13:09:01;6.47;;;4.28;;
41883;SDS011;27566;50.930;5.328;2023-09-12T13:11:29;7.53;;;4.47;;
41883;SDS011;27566;50.930;5.328;2023-09-12T13:13:56;7.65;;;4.85;;
41883;SDS011;27566;50.930;5.328;2023-09-12T13:16:22;7.15;;;4.38;;
41883;SDS011;27566;50.930;5.328;2023-09-12T13:18:51;7.15;;;4.57;;
41883;SDS011;27566;50.930;5.328;2023-09-12T13:21:17;6.32;;;3.90;;
41883;SDS011;27566;50.930;5.328;2023-09-12T13:23:42;7.03;;;4.13;;
41883;SDS011;27566;50.930;5.328;2023-09-12T13:26:09;6.57;;;4.10;;
41883;SDS011;27566;50.930;5.328;2023-09-12T13:28:35;7.05;;;4.07;;
41883;SDS011;27566;50.930;5.328;2023-09-12T13:31:02;7.47;;;4.10;;
41883;SDS011;27566;50.930;5.328;2023-09-12T13:33:28;7.07;;;4.13;;
41883;SDS011;27566;50.930;5.328;2023-09-12T13:35:54;8.18;;;4.53;;
41883;SDS011;27566;50.930;5.328;2023-09-12T13:38:20;7.47;;;4.13;;
41883;SDS011;27566;50.930;5.328;2023-09-12T13:40:48;10.45;;;4.10;;
41883;SDS011;27566;50.930;5.328;2023-09-12T13:43:14;7.80;;;4.25;;
41883;SDS011;27566;50.930;5.328;2023-09-12T13:45:40;8.18;;;3.85;;
41883;SDS011;27566;50.930;5.328;2023-09-12T13:48:06;6.97;;;4.47;;
41883;SDS011;27566;50.930;5.328;2023-09-12T13:50:33;9.57;;;4.30;;
41883;SDS011;27566;50.930;5.328;2023-09-12T13:53:00;12.50;;;4.85;;
41883;SDS011;27566;50.930;5.328;2023-09-12T13:55:32;7.40;;;4.05;;
41883;SDS011;27566;50.930;5.328;2023-09-12T13:58:00;8.50;;;3.97;;
41883;SDS011;27566;50.930;5.328;2023-09-12T14:00:29;6.10;;;3.28;;
41883;SDS011;27566;50.930;5.328;2023-09-12T14:02:56;8.05;;;4.72;;
41883;SDS011;27566;50.930;5.328;2023-09-12T14:05:25;8.18;;;4.22;;
41883;SDS011;27566;50.930;5.328;2023-09-12T14:07:51;6.82;;;4.03;;
41883;SDS011;27566;50.930;5.328;2023-09-12T14:10:17;6.47;;;4.22;;
41883;SDS011;27566;50.930;5.328;2023-09-12T14:12:43;7.55;;;3.97;;
41883;SDS011;27566;50.930;5.328;2023-09-12T14:15:09;6.68;;;3.80;;
41883;SDS011;27566;50.930;5.328;2023-09-12T14:17:37;6.28;;;4.13;;
41883;SDS011;27566;50.930;5.328;2023-09-12T14:20:03;6.95;;;4.00;;
41883;SDS011;27566;50.930;5.328;2023-09-12T14:22:29;13.10;;;4.20;;
41883;SDS011;27566;50.930;5.328;2023-09-12T14:24:55;7.55;;;3.92;;
41883;SDS011;27566;50.930;5.328;2023-09-12T14:27:21;7.97;;;3.72;;
41883;SDS011;27566;50.930;5.328;2023-09-12T14:29:47;7.50;;;4.30;;
41883;SDS011;27566;50.930;5.328;2023-09-12T14:32:14;7.57;;;3.65;;
41883;SDS011;27566;50.930;5.328;2023-09-12T14:34:40;8.88;;;3.88;;
41883;SDS011;27566;50.930;5.328;2023-09-12T14:37:06;8.18;;;4.57;;
41883;SDS011;27566;50.930;5.328;2023-09-12T14:39:32;6.50;;;3.88;;
41883;SDS011;27566;50.930;5.328;2023-09-12T14:41:58;9.95;;;4.68;;
41883;SDS011;27566;50.930;5.328;2023-09-12T14:44:26;6.18;;;3.67;;
41883;SDS011;27566;50.930;5.328;2023-09-12T14:46:53;7.40;;;4.15;;
41883;SDS011;27566;50.930;5.328;2023-09-12T14:49:19;7.05;;;3.88;;
41883;SDS011;27566;50.930;5.328;2023-09-12T14:51:45;7.32;;;4.32;;
41883;SDS011;27566;50.930;5.328;2023-09-12T14:54:11;8.55;;;4.75;;
41883;SDS011;27566;50.930;5.328;2023-09-12T14:56:38;5.85;;;3.95;;
41883;SDS011;27566;50.930;5.328;2023-09-12T14:59:04;11.95;;;4.07;;